sensor_id;sensor_type;location;lat;lon;timestamp;pressure;altitude;pressure_sealevel;temperature;humidity
73918;BME280;63639;52.280;5.162;2022-12-11T00:01:31;101249.02;;;6.00;67.64
73918;BME280;63639;52.280;5.162;2022-12-11T00:03:58;101248.91;;;6.18;67.00
73918;BME280;63639;52.280;5.162;2022-12-11T00:06:25;101247.24;;;6.28;66.74
73918;BME280;63639;52.280;5.162;2022-12-11T00:08:53;101244.29;;;6.35;66.56
73918;BME280;63639;52.280;5.162;2022-12-11T00:11:21;101243.15;;;6.38;66.99
73918;BME280;63639;52.280;5.162;2022-12-11T00:13:48;101242.38;;;6.43;66.20
73918;BME280;63639;52.280;5.162;2022-12-11T00:16:15;101244.97;;;6.56;65.99
73918;BME280;63639;52.280;5.162;2022-12-11T00:18:42;101248.63;;;6.71;66.04
73918;BME280;63639;52.280;5.162;2022-12-11T00:21:12;101254.32;;;6.68;64.97
73918;BME280;63639;52.280;5.162;2022-12-11T00:23:39;101258.99;;;6.68;65.24
73918;BME280;63639;52.280;5.162;2022-12-11T00:26:09;101261.17;;;6.62;65.65
73918;BME280;63639;52.280;5.162;2022-12-11T00:28:38;101261.71;;;6.71;65.49
73918;BME280;63639;52.280;5.162;2022-12-11T00:31:06;101264.60;;;6.66;65.33
73918;BME280;63639;52.280;5.162;2022-12-11T00:33:33;101267.17;;;6.40;65.98
73918;BME280;63639;52.280;5.162;2022-12-11T00:36:00;101264.16;;;6.15;67.33
73918;BME280;63639;52.280;5.162;2022-12-11T00:38:27;101259.81;;;6.02;67.58
73918;BME280;63639;52.280;5.162;2022-12-11T00:40:57;101253.86;;;5.81;68.23
73918;BME280;63639;52.280;5.162;2022-12-11T00:43:23;101254.65;;;5.37;69.66
73918;BME280;63639;52.280;5.162;2022-12-11T00:45:51;101251.99;;;5.26;70.14
73918;BME280;63639;52.280;5.162;2022-12-11T00:48:17;101251.03;;;5.38;70.25
73918;BME280;63639;52.280;5.162;2022-12-11T00:50:44;101253.18;;;5.02;71.13
73918;BME280;63639;52.280;5.162;2022-12-11T00:53:10;101256.00;;;5.05;71.14
73918;BME280;63639;52.280;5.162;2022-12-11T00:55:39;101250.81;;;5.12;71.33
73918;BME280;63639;52.280;5.162;2022-12-11T00:58:06;101249.84;;;5.08;71.18
73918;BME280;63639;52.280;5.162;2022-12-11T01:00:34;101246.84;;;5.32;70.99
73918;BME280;63639;52.280;5.162;2022-12-11T01:03:01;101240.14;;;5.38;70.72
73918;BME280;63639;52.280;5.162;2022-12-11T01:05:27;101235.91;;;5.25;71.07
73918;BME280;63639;52.280;5.162;2022-12-11T01:07:54;101233.50;;;5.09;71.51
73918;BME280;63639;52.280;5.162;2022-12-11T01:10:21;101233.47;;;4.94;71.72
73918;BME280;63639;52.280;5.162;2022-12-11T01:12:48;101232.73;;;5.18;71.44
73918;BME280;63639;52.280;5.162;2022-12-11T01:15:15;101228.98;;;5.30;70.80
73918;BME280;63639;52.280;5.162;2022-12-11T01:17:42;101227.41;;;5.49;70.33
73918;BME280;63639;52.280;5.162;2022-12-11T01:20:09;101223.39;;;5.60;69.82
73918;BME280;63639;52.280;5.162;2022-12-11T01:22:36;101224.53;;;5.62;69.62
73918;BME280;63639;52.280;5.162;2022-12-11T01:25:03;101228.41;;;5.71;69.73
73918;BME280;63639;52.280;5.162;2022-12-11T01:27:30;101226.93;;;5.78;69.04
73918;BME280;63639;52.280;5.162;2022-12-11T01:29:57;101224.90;;;5.86;68.42
73918;BME280;63639;52.280;5.162;2022-12-11T01:32:24;101222.59;;;5.87;68.26
73918;BME280;63639;52.280;5.162;2022-12-11T01:34:52;101226.61;;;5.57;69.57
73918;BME280;63639;52.280;5.162;2022-12-11T01:37:19;101222.92;;;5.68;69.22
73918;BME280;63639;52.280;5.162;2022-12-11T01:39:46;101223.77;;;5.69;69.21
73918;BME280;63639;52.280;5.162;2022-12-11T01:42:16;101221.91;;;5.83;69.23
73918;BME280;63639;52.280;5.162;2022-12-11T01:45:24;101223.47;;;5.76;68.89
73918;BME280;63639;52.280;5.162;2022-12-11T01:47:55;101228.72;;;5.89;68.57
73918;BME280;63639;52.280;5.162;2022-12-11T01:50:24;101227.55;;;5.74;69.14
73918;BME280;63639;52.280;5.162;2022-12-11T01:52:52;101227.01;;;5.66;69.47
73918;BME280;63639;52.280;5.162;2022-12-11T01:55:19;101227.79;;;5.59;69.86
73918;BME280;63639;52.280;5.162;2022-12-11T01:57:48;101229.73;;;5.57;70.00
73918;BME280;63639;52.280;5.162;2022-12-11T02:01:36;101232.03;;;5.73;69.12
73918;BME280;63639;52.280;5.162;2022-12-11T02:04:06;101230.79;;;5.70;69.30
73918;BME280;63639;52.280;5.162;2022-12-11T02:06:36;101228.57;;;5.71;69.22
73918;BME280;63639;52.280;5.162;2022-12-11T02:09:06;101227.23;;;5.65;69.33
73918;BME280;63639;52.280;5.162;2022-12-11T02:11:39;101225.17;;;5.78;69.37
73918;BME280;63639;52.280;5.162;2022-12-11T02:14:13;101227.32;;;6.09;68.52
73918;BME280;63639;52.280;5.162;2022-12-11T02:16:45;101219.97;;;6.22;67.68
73918;BME280;63639;52.280;5.162;2022-12-11T02:19:26;101220.31;;;6.20;67.66
73918;BME280;63639;52.280;5.162;2022-12-11T02:21:57;101220.88;;;6.12;67.55
73918;BME280;63639;52.280;5.162;2022-12-11T02:24:43;101217.85;;;6.14;67.55
73918;BME280;63639;52.280;5.162;2022-12-11T02:27:22;101213.30;;;6.04;67.80
73918;BME280;63639;52.280;5.162;2022-12-11T02:29:59;101209.09;;;5.90;68.25
73918;BME280;63639;52.280;5.162;2022-12-11T02:32:33;101206.08;;;5.85;69.08
73918;BME280;63639;52.280;5.162;2022-12-11T02:35:06;101204.38;;;5.74;69.38
73918;BME280;63639;52.280;5.162;2022-12-11T02:37:35;101203.10;;;5.88;68.89
73918;BME280;63639;52.280;5.162;2022-12-11T02:40:07;101204.19;;;5.97;68.50
73918;BME280;63639;52.280;5.162;2022-12-11T02:42:35;101204.29;;;6.00;67.89
73918;BME280;63639;52.280;5.162;2022-12-11T02:45:04;101202.22;;;5.99;68.29
73918;BME280;63639;52.280;5.162;2022-12-11T02:47:33;101203.52;;;5.87;68.74
73918;BME280;63639;52.280;5.162;2022-12-11T02:50:02;101202.43;;;5.60;69.35
73918;BME280;63639;52.280;5.162;2022-12-11T02:52:33;101202.94;;;5.54;69.74
73918;BME280;63639;52.280;5.162;2022-12-11T02:55:02;101205.05;;;5.61;69.53
73918;BME280;63639;52.280;5.162;2022-12-11T02:57:33;101204.99;;;5.53;69.51
73918;BME280;63639;52.280;5.162;2022-12-11T03:00:04;101200.97;;;5.90;68.59
73918;BME280;63639;52.280;5.162;2022-12-11T03:02:31;101199.29;;;5.73;68.91
73918;BME280;63639;52.280;5.162;2022-12-11T03:04:58;101201.69;;;5.76;68.80
73918;BME280;63639;52.280;5.162;2022-12-11T03:07:28;101200.12;;;5.77;68.81
73918;BME280;63639;52.280;5.162;2022-12-11T03:09:58;101196.54;;;5.53;69.00
73918;BME280;63639;52.280;5.162;2022-12-11T03:12:28;101196.72;;;5.59;69.14
73918;BME280;63639;52.280;5.162;2022-12-11T03:14:57;101194.60;;;5.66;68.85
73918;BME280;63639;52.280;5.162;2022-12-11T03:17:29;101196.94;;;5.80;68.69
73918;BME280;63639;52.280;5.162;2022-12-11T03:20:07;101197.91;;;5.89;68.13
73918;BME280;63639;52.280;5.162;2022-12-11T03:22:40;101194.00;;;5.73;68.31
73918;BME280;63639;52.280;5.162;2022-12-11T03:25:14;101195.76;;;5.78;68.69
73918;BME280;63639;52.280;5.162;2022-12-11T03:27:45;101190.84;;;5.79;67.95
73918;BME280;63639;52.280;5.162;2022-12-11T03:30:16;101185.72;;;5.91;68.21
73918;BME280;63639;52.280;5.162;2022-12-11T03:32:48;101184.30;;;5.94;67.49
73918;BME280;63639;52.280;5.162;2022-12-11T03:35:18;101182.51;;;5.96;67.43
73918;BME280;63639;52.280;5.162;2022-12-11T03:37:47;101180.11;;;6.02;67.37
73918;BME280;63639;52.280;5.162;2022-12-11T03:40:18;101184.24;;;6.26;66.45
73918;BME280;63639;52.280;5.162;2022-12-11T03:42:48;101182.04;;;6.40;66.30
73918;BME280;63639;52.280;5.162;2022-12-11T03:45:18;101181.15;;;6.28;66.11
73918;BME280;63639;52.280;5.162;2022-12-11T03:47:46;101183.31;;;6.25;66.19
73918;BME280;63639;52.280;5.162;2022-12-11T03:50:15;101183.25;;;6.27;65.77
73918;BME280;63639;52.280;5.162;2022-12-11T03:52:45;101184.73;;;6.22;65.81
73918;BME280;63639;52.280;5.162;2022-12-11T03:55:13;101180.97;;;6.29;65.57
73918;BME280;63639;52.280;5.162;2022-12-11T03:57:42;101180.59;;;6.33;65.60
73918;BME280;63639;52.280;5.162;2022-12-11T04:00:12;101181.32;;;6.37;65.69
73918;BME280;63639;52.280;5.162;2022-12-11T04:02:40;101179.45;;;6.40;65.45
73918;BME280;63639;52.280;5.162;2022-12-11T04:05:08;101175.78;;;6.42;65.57
73918;BME280;63639;52.280;5.162;2022-12-11T04:07:35;101177.75;;;6.51;65.09
73918;BME280;63639;52.280;5.162;2022-12-11T04:10:04;101177.03;;;6.57;64.65
73918;BME280;63639;52.280;5.162;2022-12-11T04:12:31;101179.31;;;6.67;63.82
73918;BME280;63639;52.280;5.162;2022-12-11T04:14:57;101179.98;;;6.66;63.85
73918;BME280;63639;52.280;5.162;2022-12-11T04:17:24;101180.45;;;6.63;63.72
73918;BME280;63639;52.280;5.162;2022-12-11T04:19:51;101182.34;;;6.69;64.01
73918;BME280;63639;52.280;5.162;2022-12-11T04:22:17;101185.06;;;6.75;63.72
73918;BME280;63639;52.280;5.162;2022-12-11T04:24:46;101189.73;;;6.77;63.65
73918;BME280;63639;52.280;5.162;2022-12-11T04:27:12;101188.37;;;6.90;63.35
73918;BME280;63639;52.280;5.162;2022-12-11T04:29:39;101193.15;;;6.90;63.30
73918;BME280;63639;52.280;5.162;2022-12-11T04:32:06;101189.37;;;6.59;63.91
73918;BME280;63639;52.280;5.162;2022-12-11T04:34:33;101185.47;;;6.57;64.54
73918;BME280;63639;52.280;5.162;2022-12-11T04:37:00;101181.63;;;6.59;64.09
73918;BME280;63639;52.280;5.162;2022-12-11T04:39:26;101180.38;;;6.55;64.40
73918;BME280;63639;52.280;5.162;2022-12-11T04:41:53;101176.93;;;6.58;64.13
73918;BME280;63639;52.280;5.162;2022-12-11T04:44:20;101177.70;;;6.59;64.22
73918;BME280;63639;52.280;5.162;2022-12-11T04:46:47;101177.77;;;6.58;63.91
73918;BME280;63639;52.280;5.162;2022-12-11T04:49:13;101178.35;;;6.74;63.67
73918;BME280;63639;52.280;5.162;2022-12-11T04:51:40;101174.45;;;6.81;63.30
73918;BME280;63639;52.280;5.162;2022-12-11T04:54:07;101168.81;;;6.74;63.62
73918;BME280;63639;52.280;5.162;2022-12-11T04:56:33;101163.80;;;6.63;63.99
73918;BME280;63639;52.280;5.162;2022-12-11T04:59:00;101162.85;;;6.64;63.94
73918;BME280;63639;52.280;5.162;2022-12-11T05:01:26;101160.94;;;6.64;64.19
73918;BME280;63639;52.280;5.162;2022-12-11T05:03:53;101165.15;;;6.70;63.78
73918;BME280;63639;52.280;5.162;2022-12-11T05:06:20;101162.15;;;6.81;64.06
73918;BME280;63639;52.280;5.162;2022-12-11T05:08:47;101164.36;;;6.77;63.21
73918;BME280;63639;52.280;5.162;2022-12-11T05:11:15;101163.46;;;6.73;63.53
73918;BME280;63639;52.280;5.162;2022-12-11T05:13:42;101166.88;;;6.70;63.54
73918;BME280;63639;52.280;5.162;2022-12-11T05:16:12;101167.55;;;6.38;64.51
73918;BME280;63639;52.280;5.162;2022-12-11T05:18:40;101168.79;;;6.21;65.44
73918;BME280;63639;52.280;5.162;2022-12-11T05:21:09;101172.43;;;6.16;65.40
73918;BME280;63639;52.280;5.162;2022-12-11T05:23:37;101174.72;;;6.21;65.60
73918;BME280;63639;52.280;5.162;2022-12-11T05:26:06;101170.54;;;6.35;64.83
73918;BME280;63639;52.280;5.162;2022-12-11T05:28:36;101171.21;;;6.48;64.99
73918;BME280;63639;52.280;5.162;2022-12-11T05:31:05;101168.58;;;6.49;64.09
73918;BME280;63639;52.280;5.162;2022-12-11T05:33:33;101165.50;;;6.64;64.13
73918;BME280;63639;52.280;5.162;2022-12-11T05:36:00;101161.66;;;6.80;63.50
73918;BME280;63639;52.280;5.162;2022-12-11T05:38:27;101158.28;;;6.74;63.93
73918;BME280;63639;52.280;5.162;2022-12-11T05:40:55;101158.94;;;6.82;63.23
73918;BME280;63639;52.280;5.162;2022-12-11T05:43:22;101156.49;;;6.64;63.35
73918;BME280;63639;52.280;5.162;2022-12-11T05:45:49;101154.54;;;6.45;64.25
73918;BME280;63639;52.280;5.162;2022-12-11T05:48:15;101157.79;;;6.17;65.20
73918;BME280;63639;52.280;5.162;2022-12-11T05:50:42;101155.78;;;5.98;65.54
73918;BME280;63639;52.280;5.162;2022-12-11T05:53:09;101151.33;;;5.93;66.25
73918;BME280;63639;52.280;5.162;2022-12-11T05:55:36;101148.79;;;5.84;66.54
73918;BME280;63639;52.280;5.162;2022-12-11T05:58:03;101146.65;;;5.75;66.72
73918;BME280;63639;52.280;5.162;2022-12-11T06:00:30;101146.14;;;5.67;67.21
73918;BME280;63639;52.280;5.162;2022-12-11T06:02:56;101142.83;;;5.78;67.02
73918;BME280;63639;52.280;5.162;2022-12-11T06:05:23;101142.00;;;6.01;66.56
73918;BME280;63639;52.280;5.162;2022-12-11T06:07:50;101141.73;;;6.03;65.97
73918;BME280;63639;52.280;5.162;2022-12-11T06:10:17;101144.77;;;6.11;65.73
73918;BME280;63639;52.280;5.162;2022-12-11T06:12:44;101143.61;;;6.33;65.18
73918;BME280;63639;52.280;5.162;2022-12-11T06:15:11;101142.91;;;6.38;64.92
73918;BME280;63639;52.280;5.162;2022-12-11T06:17:38;101145.22;;;6.37;64.79
73918;BME280;63639;52.280;5.162;2022-12-11T06:20:06;101147.41;;;6.58;64.55
73918;BME280;63639;52.280;5.162;2022-12-11T06:22:33;101144.36;;;6.78;63.71
73918;BME280;63639;52.280;5.162;2022-12-11T06:24:59;101144.19;;;6.82;63.75
73918;BME280;63639;52.280;5.162;2022-12-11T06:27:26;101144.70;;;6.81;63.27
73918;BME280;63639;52.280;5.162;2022-12-11T06:29:53;101146.02;;;6.71;63.21
73918;BME280;63639;52.280;5.162;2022-12-11T06:32:20;101144.58;;;6.68;63.55
73918;BME280;63639;52.280;5.162;2022-12-11T06:34:47;101145.18;;;6.64;63.81
73918;BME280;63639;52.280;5.162;2022-12-11T06:37:14;101147.39;;;6.52;64.06
73918;BME280;63639;52.280;5.162;2022-12-11T06:39:41;101147.58;;;6.55;64.10
73918;BME280;63639;52.280;5.162;2022-12-11T06:42:08;101149.78;;;6.50;64.49
73918;BME280;63639;52.280;5.162;2022-12-11T06:44:34;101148.37;;;6.50;64.17
73918;BME280;63639;52.280;5.162;2022-12-11T06:47:02;101150.55;;;6.55;63.69
73918;BME280;63639;52.280;5.162;2022-12-11T06:49:29;101153.26;;;6.70;63.51
73918;BME280;63639;52.280;5.162;2022-12-11T06:51:56;101155.11;;;6.60;63.67
73918;BME280;63639;52.280;5.162;2022-12-11T06:54:24;101159.70;;;6.68;63.71
73918;BME280;63639;52.280;5.162;2022-12-11T06:56:51;101162.54;;;6.71;63.10
73918;BME280;63639;52.280;5.162;2022-12-11T06:59:18;101163.70;;;6.65;63.16
73918;BME280;63639;52.280;5.162;2022-12-11T07:01:45;101163.10;;;6.62;62.92
73918;BME280;63639;52.280;5.162;2022-12-11T07:04:12;101162.72;;;6.58;63.24
73918;BME280;63639;52.280;5.162;2022-12-11T07:06:39;101168.01;;;6.71;63.27
73918;BME280;63639;52.280;5.162;2022-12-11T07:09:06;101168.36;;;6.77;63.02
73918;BME280;63639;52.280;5.162;2022-12-11T07:11:34;101168.23;;;6.66;62.88
73918;BME280;63639;52.280;5.162;2022-12-11T07:14:01;101170.89;;;6.50;63.21
73918;BME280;63639;52.280;5.162;2022-12-11T07:16:27;101174.94;;;6.48;63.60
73918;BME280;63639;52.280;5.162;2022-12-11T07:18:54;101172.41;;;6.46;63.23
73918;BME280;63639;52.280;5.162;2022-12-11T07:21:21;101171.42;;;6.57;63.48
73918;BME280;63639;52.280;5.162;2022-12-11T07:23:48;101170.54;;;6.72;63.19
73918;BME280;63639;52.280;5.162;2022-12-11T07:26:18;101172.89;;;6.82;62.29
73918;BME280;63639;52.280;5.162;2022-12-11T07:28:45;101173.06;;;6.61;62.18
73918;BME280;63639;52.280;5.162;2022-12-11T07:31:14;101177.13;;;6.56;62.64
73918;BME280;63639;52.280;5.162;2022-12-11T07:33:42;101179.30;;;6.61;62.74
73918;BME280;63639;52.280;5.162;2022-12-11T07:36:10;101176.04;;;6.62;62.11
73918;BME280;63639;52.280;5.162;2022-12-11T07:38:38;101176.95;;;6.55;62.32
73918;BME280;63639;52.280;5.162;2022-12-11T07:41:07;101177.42;;;6.60;62.54
73918;BME280;63639;52.280;5.162;2022-12-11T07:43:35;101179.48;;;6.69;62.79
73918;BME280;63639;52.280;5.162;2022-12-11T07:46:02;101181.28;;;6.70;62.28
73918;BME280;63639;52.280;5.162;2022-12-11T07:48:29;101178.25;;;6.67;62.38
73918;BME280;63639;52.280;5.162;2022-12-11T07:51:07;101176.91;;;6.59;62.04
73918;BME280;63639;52.280;5.162;2022-12-11T07:53:34;101177.33;;;6.46;62.73
73918;BME280;63639;52.280;5.162;2022-12-11T07:56:00;101175.31;;;6.39;62.81
73918;BME280;63639;52.280;5.162;2022-12-11T07:58:27;101177.43;;;6.28;62.74
73918;BME280;63639;52.280;5.162;2022-12-11T08:00:53;101181.96;;;6.36;63.12
73918;BME280;63639;52.280;5.162;2022-12-11T08:03:20;101183.81;;;6.52;62.67
73918;BME280;63639;52.280;5.162;2022-12-11T08:05:48;101184.83;;;6.48;61.64
73918;BME280;63639;52.280;5.162;2022-12-11T08:08:15;101186.37;;;6.63;61.78
73918;BME280;63639;52.280;5.162;2022-12-11T08:10:42;101188.56;;;6.72;61.02
73918;BME280;63639;52.280;5.162;2022-12-11T08:13:09;101188.98;;;6.69;61.24
73918;BME280;63639;52.280;5.162;2022-12-11T08:15:36;101186.56;;;6.66;61.51
73918;BME280;63639;52.280;5.162;2022-12-11T08:18:04;101188.35;;;6.66;61.70
73918;BME280;63639;52.280;5.162;2022-12-11T08:20:31;101192.02;;;6.65;61.63
73918;BME280;63639;52.280;5.162;2022-12-11T08:22:58;101194.39;;;6.66;61.96
73918;BME280;63639;52.280;5.162;2022-12-11T08:25:25;101197.73;;;6.77;61.86
73918;BME280;63639;52.280;5.162;2022-12-11T08:27:52;101203.60;;;6.79;61.71
73918;BME280;63639;52.280;5.162;2022-12-11T08:30:18;101204.09;;;6.82;61.31
73918;BME280;63639;52.280;5.162;2022-12-11T08:32:45;101205.27;;;6.81;61.14
73918;BME280;63639;52.280;5.162;2022-12-11T08:35:11;101204.83;;;6.56;60.98
73918;BME280;63639;52.280;5.162;2022-12-11T08:37:38;101200.20;;;6.45;60.66
73918;BME280;63639;52.280;5.162;2022-12-11T08:40:06;101200.86;;;6.39;61.10
73918;BME280;63639;52.280;5.162;2022-12-11T08:42:34;101201.31;;;6.43;60.88
73918;BME280;63639;52.280;5.162;2022-12-11T08:45:01;101198.26;;;6.33;61.38
73918;BME280;63639;52.280;5.162;2022-12-11T08:47:27;101199.41;;;6.23;61.44
73918;BME280;63639;52.280;5.162;2022-12-11T08:49:54;101196.45;;;6.27;61.34
73918;BME280;63639;52.280;5.162;2022-12-11T08:52:22;101195.43;;;6.09;61.66
73918;BME280;63639;52.280;5.162;2022-12-11T08:54:49;101197.14;;;5.98;61.99
73918;BME280;63639;52.280;5.162;2022-12-11T08:57:15;101189.95;;;6.00;62.13
73918;BME280;63639;52.280;5.162;2022-12-11T08:59:42;101187.70;;;6.15;61.77
73918;BME280;63639;52.280;5.162;2022-12-11T09:02:10;101190.46;;;6.21;61.69
73918;BME280;63639;52.280;5.162;2022-12-11T09:04:38;101190.56;;;6.25;61.47
73918;BME280;63639;52.280;5.162;2022-12-11T09:07:05;101188.56;;;6.36;61.32
73918;BME280;63639;52.280;5.162;2022-12-11T09:09:31;101185.57;;;6.24;61.12
73918;BME280;63639;52.280;5.162;2022-12-11T09:11:58;101179.29;;;6.37;60.86
73918;BME280;63639;52.280;5.162;2022-12-11T09:14:24;101179.68;;;6.44;60.98
73918;BME280;63639;52.280;5.162;2022-12-11T09:16:51;101177.20;;;6.52;60.69
73918;BME280;63639;52.280;5.162;2022-12-11T09:19:18;101176.09;;;6.56;60.37
73918;BME280;63639;52.280;5.162;2022-12-11T09:21:45;101175.25;;;6.53;60.23
73918;BME280;63639;52.280;5.162;2022-12-11T09:24:12;101173.64;;;6.30;60.61
73918;BME280;63639;52.280;5.162;2022-12-11T09:26:39;101175.12;;;6.30;61.10
73918;BME280;63639;52.280;5.162;2022-12-11T09:29:06;101178.10;;;6.43;61.09
73918;BME280;63639;52.280;5.162;2022-12-11T09:31:35;101176.19;;;6.49;60.72
73918;BME280;63639;52.280;5.162;2022-12-11T09:34:04;101177.76;;;6.76;60.31
73918;BME280;63639;52.280;5.162;2022-12-11T09:36:31;101176.79;;;6.89;59.42
73918;BME280;63639;52.280;5.162;2022-12-11T09:38:59;101179.07;;;7.00;59.19
73918;BME280;63639;52.280;5.162;2022-12-11T09:41:35;101180.25;;;7.06;58.96
73918;BME280;63639;52.280;5.162;2022-12-11T09:44:14;101179.40;;;7.07;58.52
73918;BME280;63639;52.280;5.162;2022-12-11T09:46:43;101177.68;;;7.13;59.03
73918;BME280;63639;52.280;5.162;2022-12-11T09:49:21;101177.39;;;7.21;57.87
73918;BME280;63639;52.280;5.162;2022-12-11T09:51:58;101172.18;;;7.39;57.61
73918;BME280;63639;52.280;5.162;2022-12-11T09:54:26;101170.50;;;7.41;57.12
73918;BME280;63639;52.280;5.162;2022-12-11T09:56:58;101170.14;;;7.49;57.94
73918;BME280;63639;52.280;5.162;2022-12-11T09:59:32;101167.31;;;7.63;58.08
73918;BME280;63639;52.280;5.162;2022-12-11T10:02:17;101166.66;;;7.78;57.42
73918;BME280;63639;52.280;5.162;2022-12-11T10:04:54;101165.65;;;7.81;56.86
73918;BME280;63639;52.280;5.162;2022-12-11T10:07:31;101167.76;;;7.75;56.71
73918;BME280;63639;52.280;5.162;2022-12-11T10:10:03;101170.51;;;7.67;57.10
73918;BME280;63639;52.280;5.162;2022-12-11T10:12:37;101169.93;;;7.66;57.17
73918;BME280;63639;52.280;5.162;2022-12-11T10:15:19;101173.19;;;7.70;57.27
73918;BME280;63639;52.280;5.162;2022-12-11T10:17:50;101174.72;;;7.70;57.12
73918;BME280;63639;52.280;5.162;2022-12-11T10:20:23;101180.20;;;7.69;57.40
73918;BME280;63639;52.280;5.162;2022-12-11T10:22:51;101179.70;;;7.68;57.17
73918;BME280;63639;52.280;5.162;2022-12-11T10:25:21;101177.25;;;7.68;57.37
73918;BME280;63639;52.280;5.162;2022-12-11T10:27:51;101172.90;;;7.67;57.31
73918;BME280;63639;52.280;5.162;2022-12-11T10:30:20;101163.72;;;7.66;57.86
73918;BME280;63639;52.280;5.162;2022-12-11T10:32:52;101163.27;;;7.73;57.29
73918;BME280;63639;52.280;5.162;2022-12-11T10:35:26;101162.01;;;7.75;58.08
73918;BME280;63639;52.280;5.162;2022-12-11T10:38:00;101159.27;;;7.83;58.15
73918;BME280;63639;52.280;5.162;2022-12-11T10:40:31;101156.76;;;7.82;57.12
73918;BME280;63639;52.280;5.162;2022-12-11T10:43:00;101151.77;;;7.87;57.70
73918;BME280;63639;52.280;5.162;2022-12-11T10:45:27;101149.28;;;7.83;57.47
73918;BME280;63639;52.280;5.162;2022-12-11T10:48:01;101152.35;;;7.81;57.96
73918;BME280;63639;52.280;5.162;2022-12-11T10:50:28;101155.18;;;7.81;57.81
73918;BME280;63639;52.280;5.162;2022-12-11T10:52:55;101154.49;;;7.86;58.08
73918;BME280;63639;52.280;5.162;2022-12-11T10:55:24;101149.44;;;7.91;57.81
73918;BME280;63639;52.280;5.162;2022-12-11T10:57:55;101148.06;;;8.00;57.86
73918;BME280;63639;52.280;5.162;2022-12-11T11:00:30;101147.03;;;8.06;57.72
73918;BME280;63639;52.280;5.162;2022-12-11T11:02:59;101141.32;;;8.04;57.30
73918;BME280;63639;52.280;5.162;2022-12-11T11:05:29;101138.69;;;7.93;58.22
73918;BME280;63639;52.280;5.162;2022-12-11T11:08:12;101135.48;;;7.92;58.42
73918;BME280;63639;52.280;5.162;2022-12-11T11:10:58;101135.89;;;8.01;58.36
73918;BME280;63639;52.280;5.162;2022-12-11T11:13:27;101136.06;;;8.01;57.80
73918;BME280;63639;52.280;5.162;2022-12-11T11:15:59;101135.57;;;7.88;58.32
73918;BME280;63639;52.280;5.162;2022-12-11T11:18:27;101133.35;;;7.85;57.80
73918;BME280;63639;52.280;5.162;2022-12-11T11:20:55;101133.65;;;7.97;58.05
73918;BME280;63639;52.280;5.162;2022-12-11T11:23:24;101131.00;;;8.03;58.21
73918;BME280;63639;52.280;5.162;2022-12-11T11:25:53;101127.64;;;8.06;58.01
73918;BME280;63639;52.280;5.162;2022-12-11T11:28:23;101126.12;;;8.05;57.84
73918;BME280;63639;52.280;5.162;2022-12-11T11:30:57;101123.69;;;8.03;57.44
73918;BME280;63639;52.280;5.162;2022-12-11T11:33:25;101118.67;;;8.02;57.75
73918;BME280;63639;52.280;5.162;2022-12-11T11:35:53;101117.80;;;7.94;58.01
73918;BME280;63639;52.280;5.162;2022-12-11T11:38:22;101118.53;;;7.80;58.73
73918;BME280;63639;52.280;5.162;2022-12-11T11:40:54;101120.23;;;7.64;58.95
73918;BME280;63639;52.280;5.162;2022-12-11T11:43:31;101119.00;;;7.61;59.06
73918;BME280;63639;52.280;5.162;2022-12-11T11:46:03;101114.57;;;7.66;59.35
73918;BME280;63639;52.280;5.162;2022-12-11T11:48:37;101119.68;;;7.54;58.97
73918;BME280;63639;52.280;5.162;2022-12-11T11:51:14;101108.72;;;7.63;59.14
73918;BME280;63639;52.280;5.162;2022-12-11T11:53:44;101110.83;;;7.61;58.93
73918;BME280;63639;52.280;5.162;2022-12-11T11:56:19;101107.47;;;7.50;59.40
73918;BME280;63639;52.280;5.162;2022-12-11T11:58:51;101107.49;;;7.44;60.08
73918;BME280;63639;52.280;5.162;2022-12-11T12:01:20;101105.22;;;7.51;59.71
73918;BME280;63639;52.280;5.162;2022-12-11T12:03:48;101108.25;;;7.52;60.12
73918;BME280;63639;52.280;5.162;2022-12-11T12:06:21;101103.62;;;7.57;60.06
73918;BME280;63639;52.280;5.162;2022-12-11T12:08:54;101107.38;;;7.54;59.54
73918;BME280;63639;52.280;5.162;2022-12-11T12:11:32;101101.19;;;7.59;59.99
73918;BME280;63639;52.280;5.162;2022-12-11T12:14:08;101100.64;;;7.65;59.19
73918;BME280;63639;52.280;5.162;2022-12-11T12:16:44;101104.00;;;7.72;59.45
73918;BME280;63639;52.280;5.162;2022-12-11T12:19:25;101107.47;;;7.75;58.89
73918;BME280;63639;52.280;5.162;2022-12-11T12:22:01;101104.20;;;7.70;59.08
73918;BME280;63639;52.280;5.162;2022-12-11T12:24:39;101103.50;;;7.65;58.63
73918;BME280;63639;52.280;5.162;2022-12-11T12:27:16;101105.44;;;7.70;59.54
73918;BME280;63639;52.280;5.162;2022-12-11T12:29:51;101104.59;;;7.65;59.29
73918;BME280;63639;52.280;5.162;2022-12-11T12:32:30;101113.13;;;7.11;60.60
73918;BME280;63639;52.280;5.162;2022-12-11T12:35:10;101114.05;;;6.93;61.15
73918;BME280;63639;52.280;5.162;2022-12-11T12:37:56;101108.94;;;7.04;61.51
73918;BME280;63639;52.280;5.162;2022-12-11T12:40:29;101103.97;;;7.10;61.03
73918;BME280;63639;52.280;5.162;2022-12-11T12:43:04;101104.59;;;7.11;61.17
73918;BME280;63639;52.280;5.162;2022-12-11T12:45:40;101102.31;;;7.19;61.11
73918;BME280;63639;52.280;5.162;2022-12-11T12:48:09;101105.96;;;7.32;60.47
73918;BME280;63639;52.280;5.162;2022-12-11T12:50:40;101106.63;;;7.35;59.71
73918;BME280;63639;52.280;5.162;2022-12-11T12:53:14;101104.73;;;7.12;60.54
73918;BME280;63639;52.280;5.162;2022-12-11T12:55:43;101099.15;;;7.03;60.94
73918;BME280;63639;52.280;5.162;2022-12-11T12:58:24;101097.67;;;7.17;61.40
73918;BME280;63639;52.280;5.162;2022-12-11T13:00:52;101094.85;;;7.33;60.74
73918;BME280;63639;52.280;5.162;2022-12-11T13:03:21;101091.18;;;7.50;59.76
73918;BME280;63639;52.280;5.162;2022-12-11T13:05:56;101089.59;;;7.24;59.54
73918;BME280;63639;52.280;5.162;2022-12-11T13:08:24;101090.38;;;6.82;60.86
73918;BME280;63639;52.280;5.162;2022-12-11T13:11:00;101086.56;;;6.83;61.65
73918;BME280;63639;52.280;5.162;2022-12-11T13:13:34;101089.28;;;6.90;61.34